AND weather

Anderson Regional Airport
Anderson, South Carolina, United States

Public forecast

Using degrees Fahrenheit for public forecast. Weather courtesy of forecast.io.

Current aviation weather report (METAR) for Anderson Regional Airport

Retrieved 2020/05/25 19:56 UTC (32 minutes ago):

KAND 251956Z AUTO 07007KT 10SM FEW027 SCT034 BKN047 27/19 A3008 RMK AO2 SLP177 T02670194

Aviation forecast (TAF) for Anderson Regional Airport

Retrieved 2020/05/25 18:42 UTC (2 hours ago):

TAF KAND 251739Z 2518/2618 07007KT P6SM VCSH BKN020 FM252000 07007KT P6SM VCTS BKN040CB TEMPO 2520/2524 4SM -TSRA BR OVC025CB FM260000 07007KT P6SM VCSH BKN080 FM260600 07006KT P6SM BKN017